createdAt,value
2023-04-07T00:00:04.421Z,89
2023-04-07T00:01:01.200Z,89
2023-04-07T00:02:02.212Z,89
2023-04-07T00:03:01.287Z,89
2023-04-07T00:04:01.575Z,89
2023-04-07T00:05:03.988Z,89
2023-04-07T00:06:02.175Z,89
2023-04-07T00:07:01.234Z,89
2023-04-07T00:08:00.372Z,89
2023-04-07T00:09:00.245Z,89
2023-04-07T00:10:03.765Z,89
2023-04-07T00:11:00.254Z,89
2023-04-07T00:12:00.340Z,89
2023-04-07T00:13:00.270Z,89
2023-04-07T00:14:00.378Z,89
2023-04-07T00:15:02.868Z,89
2023-04-07T00:16:00.430Z,89
2023-04-07T00:17:00.285Z,89
2023-04-07T00:18:00.418Z,89
2023-04-07T00:19:00.304Z,89
2023-04-07T00:20:03.473Z,89
2023-04-07T00:21:00.345Z,89
2023-04-07T00:22:00.382Z,89
2023-04-07T00:23:00.331Z,89
2023-04-07T00:24:00.419Z,89
2023-04-07T00:25:03.086Z,89
2023-04-07T00:26:00.431Z,89
2023-04-07T00:27:00.340Z,89
2023-04-07T00:28:00.402Z,89
2023-04-07T00:29:00.345Z,89
2023-04-07T00:30:04.856Z,89
2023-04-07T00:31:00.404Z,89
2023-04-07T00:32:00.509Z,89
2023-04-07T00:33:00.427Z,89
2023-04-07T00:34:00.435Z,89
2023-04-07T00:35:02.974Z,89
2023-04-07T00:36:00.526Z,89
2023-04-07T00:37:00.376Z,90
2023-04-07T00:38:00.496Z,90
2023-04-07T00:39:00.416Z,90
2023-04-07T00:40:03.627Z,90
2023-04-07T00:41:00.417Z,90
2023-04-07T00:42:00.491Z,90
2023-04-07T00:43:00.404Z,90
2023-04-07T00:44:00.499Z,90
2023-04-07T00:45:03.819Z,90
2023-04-07T00:46:00.567Z,90
2023-04-07T00:47:00.419Z,90
2023-04-07T00:48:00.576Z,90
2023-04-07T00:49:00.434Z,90
2023-04-07T00:50:03.474Z,90
2023-04-07T00:51:00.452Z,90
2023-04-07T00:52:00.532Z,90
2023-04-07T00:53:00.454Z,90
2023-04-07T00:54:00.536Z,90
2023-04-07T00:55:03.175Z,90
2023-04-07T00:56:00.564Z,90
2023-04-07T00:57:00.482Z,90
2023-04-07T00:58:00.539Z,90
2023-04-07T00:59:00.472Z,90
2023-04-07T01:00:04.901Z,90
2023-04-07T01:01:00.511Z,90
2023-04-07T01:02:00.774Z,90
2023-04-07T01:03:00.882Z,90
2023-04-07T01:04:00.897Z,90
2023-04-07T01:05:03.305Z,90
2023-04-07T01:06:00.622Z,90
2023-04-07T01:07:00.559Z,90
2023-04-07T01:08:00.697Z,90
2023-04-07T01:09:00.565Z,90
2023-04-07T01:10:03.762Z,90
2023-04-07T01:11:00.592Z,90
2023-04-07T01:12:02.188Z,90
2023-04-07T01:13:00.618Z,90
2023-04-07T01:14:00.705Z,90
2023-04-07T01:15:03.191Z,90
2023-04-07T01:16:00.741Z,90
2023-04-07T01:17:00.635Z,90
2023-04-07T01:18:00.770Z,90
2023-04-07T01:19:00.638Z,90
2023-04-07T01:20:03.701Z,90
2023-04-07T01:21:00.650Z,90
2023-04-07T01:22:00.718Z,90
2023-04-07T01:23:00.654Z,90
2023-04-07T01:24:00.775Z,90
2023-04-07T01:25:03.269Z,90
2023-04-07T01:26:00.774Z,90
2023-04-07T01:27:00.688Z,90
2023-04-07T01:28:00.758Z,90
2023-04-07T01:29:00.667Z,90
2023-04-07T01:30:03.794Z,90
2023-04-07T01:31:00.704Z,90
2023-04-07T01:32:02.275Z,90
2023-04-07T01:33:00.834Z,90
2023-04-07T01:34:00.778Z,90
2023-04-07T01:35:03.312Z,90
2023-04-07T01:36:00.805Z,90
2023-04-07T01:37:00.753Z,90
2023-04-07T01:38:00.844Z,90
2023-04-07T01:39:00.765Z,90
2023-04-07T01:40:04.492Z,90
2023-04-07T01:41:00.737Z,90
2023-04-07T01:42:00.820Z,90
2023-04-07T01:43:00.765Z,90
2023-04-07T01:44:00.847Z,90
2023-04-07T01:45:03.390Z,90
2023-04-07T01:46:02.210Z,90
2023-04-07T01:47:00.859Z,90
2023-04-07T01:48:00.923Z,90
2023-04-07T01:49:00.779Z,90
2023-04-07T01:50:03.779Z,90
2023-04-07T01:51:00.835Z,90
2023-04-07T01:52:00.888Z,90
2023-04-07T01:53:00.828Z,90
2023-04-07T01:54:00.909Z,90
2023-04-07T01:55:03.423Z,90
2023-04-07T01:56:01.079Z,90
2023-04-07T01:57:00.857Z,90
2023-04-07T01:58:00.887Z,90
2023-04-07T01:59:00.843Z,90
2023-04-07T02:00:03.942Z,91
2023-04-07T02:01:00.915Z,91
2023-04-07T02:02:01.093Z,91
2023-04-07T02:03:00.980Z,91
2023-04-07T02:04:01.059Z,91
2023-04-07T02:05:03.552Z,91
2023-04-07T02:06:00.968Z,91
2023-04-07T02:07:00.923Z,91
2023-04-07T02:08:00.986Z,91
2023-04-07T02:09:00.920Z,91
2023-04-07T02:10:04.225Z,91
2023-04-07T02:11:00.929Z,91
2023-04-07T02:12:01.042Z,91
2023-04-07T02:13:00.940Z,91
2023-04-07T02:14:02.218Z,91
2023-04-07T02:15:03.496Z,91
2023-04-07T02:16:01.037Z,91
2023-04-07T02:17:00.936Z,91
2023-04-07T02:18:01.125Z,91
2023-04-07T02:19:00.955Z,91
2023-04-07T02:20:04.088Z,91
2023-04-07T02:21:00.999Z,91
2023-04-07T02:22:01.059Z,91
2023-04-07T02:23:00.981Z,91
2023-04-07T02:24:01.090Z,91
2023-04-07T02:25:03.589Z,91
2023-04-07T02:26:01.083Z,91
2023-04-07T02:27:01.006Z,91
2023-04-07T02:28:02.219Z,91
2023-04-07T02:29:00.994Z,91
2023-04-07T02:30:04.575Z,91
2023-04-07T02:31:01.032Z,91
2023-04-07T02:32:02.327Z,91
2023-04-07T02:33:01.114Z,91
2023-04-07T02:34:08.305Z,91
2023-04-07T02:35:04.761Z,91
2023-04-07T02:36:01.164Z,91
2023-04-07T02:37:01.100Z,91
2023-04-07T02:38:01.167Z,91
2023-04-07T02:39:01.097Z,91
2023-04-07T02:40:03.924Z,91
2023-04-07T02:41:01.128Z,91
2023-04-07T02:42:01.210Z,91
2023-04-07T02:43:01.117Z,91
2023-04-07T02:44:01.229Z,91
2023-04-07T02:45:03.872Z,91
2023-04-07T02:46:02.276Z,91
2023-04-07T02:47:01.160Z,91
2023-04-07T02:48:01.272Z,91
2023-04-07T02:49:01.169Z,91
2023-04-07T02:50:04.190Z,91
2023-04-07T02:51:01.232Z,91
2023-04-07T02:52:01.261Z,91
2023-04-07T02:53:01.169Z,91
2023-04-07T02:54:01.261Z,91
2023-04-07T02:55:03.701Z,91
2023-04-07T02:56:00.268Z,91
2023-04-07T02:57:00.201Z,91
2023-04-07T02:58:00.269Z,91
2023-04-07T02:59:00.196Z,91
2023-04-07T03:00:04.747Z,91
2023-04-07T03:01:00.270Z,91
2023-04-07T03:02:00.484Z,91
2023-04-07T03:03:00.375Z,91
2023-04-07T03:04:00.393Z,91
2023-04-07T03:05:02.915Z,91
2023-04-07T03:06:00.335Z,91
2023-04-07T03:07:00.252Z,91
2023-04-07T03:08:00.356Z,91
2023-04-07T03:09:00.286Z,91
2023-04-07T03:10:03.208Z,91
2023-04-07T03:11:00.278Z,91
2023-04-07T03:12:01.400Z,91
2023-04-07T03:13:00.301Z,91
2023-04-07T03:14:00.404Z,91
2023-04-07T03:15:02.951Z,91
2023-04-07T03:16:01.503Z,91
2023-04-07T03:17:00.380Z,91
2023-04-07T03:18:00.467Z,91
2023-04-07T03:19:00.326Z,91
2023-04-07T03:20:03.548Z,91
2023-04-07T03:21:00.337Z,91
2023-04-07T03:22:00.419Z,91
2023-04-07T03:23:00.344Z,91
2023-04-07T03:24:01.340Z,91
2023-04-07T03:25:02.967Z,91
2023-04-07T03:26:00.460Z,91
2023-04-07T03:27:00.367Z,91
2023-04-07T03:28:00.434Z,91
2023-04-07T03:29:00.383Z,91
2023-04-07T03:30:04.441Z,91
2023-04-07T03:31:00.456Z,91
2023-04-07T03:32:01.359Z,91
2023-04-07T03:33:00.461Z,91
2023-04-07T03:34:00.526Z,91
2023-04-07T03:35:02.986Z,91
2023-04-07T03:36:01.379Z,91
2023-04-07T03:37:00.438Z,91
2023-04-07T03:38:00.692Z,91
2023-04-07T03:39:00.460Z,91
2023-04-07T03:40:03.717Z,91
2023-04-07T03:41:00.475Z,91
2023-04-07T03:42:00.536Z,91
2023-04-07T03:43:00.486Z,91
2023-04-07T03:44:00.607Z,91
2023-04-07T03:45:03.077Z,91
2023-04-07T03:46:00.635Z,91
2023-04-07T03:47:00.504Z,91
2023-04-07T03:48:00.635Z,91
2023-04-07T03:49:00.509Z,91
2023-04-07T03:50:05.027Z,91
2023-04-07T03:51:00.571Z,91
2023-04-07T03:52:00.602Z,91
2023-04-07T03:53:00.532Z,91
2023-04-07T03:54:01.338Z,91
2023-04-07T03:55:03.163Z,91
2023-04-07T03:56:00.639Z,91
2023-04-07T03:57:00.582Z,91
2023-04-07T03:58:00.635Z,91
2023-04-07T03:59:00.570Z,91
2023-04-07T04:00:04.223Z,91
2023-04-07T04:01:00.618Z,91
2023-04-07T04:02:00.764Z,91
2023-04-07T04:03:00.805Z,91
2023-04-07T04:04:00.915Z,91
2023-04-07T04:05:03.248Z,91
2023-04-07T04:06:00.747Z,91
2023-04-07T04:07:00.646Z,91
2023-04-07T04:08:01.364Z,91
2023-04-07T04:09:00.648Z,91
2023-04-07T04:10:03.825Z,91
2023-04-07T04:11:00.669Z,91
2023-04-07T04:12:01.378Z,91
2023-04-07T04:13:00.693Z,91
2023-04-07T04:14:00.756Z,91
2023-04-07T04:15:03.259Z,91
2023-04-07T04:16:01.594Z,91
2023-04-07T04:17:00.712Z,91
2023-04-07T04:18:00.887Z,91
2023-04-07T04:19:00.711Z,91
2023-04-07T04:20:04.064Z,91
2023-04-07T04:21:00.717Z,91
2023-04-07T04:22:00.825Z,91
2023-04-07T04:23:00.735Z,91
2023-04-07T04:24:01.393Z,91
2023-04-07T04:25:04.248Z,91
2023-04-07T04:26:00.818Z,91
2023-04-07T04:27:00.765Z,91
2023-04-07T04:33:31.268Z,91
2023-04-07T04:34:00.886Z,91
2023-04-07T04:35:03.430Z,91
2023-04-07T04:36:00.927Z,91
2023-04-07T04:37:00.809Z,91
2023-04-07T04:38:00.880Z,91
2023-04-07T04:39:00.869Z,91
2023-04-07T04:40:04.073Z,91
2023-04-07T04:41:00.864Z,91
2023-04-07T04:42:01.988Z,91
2023-04-07T04:43:00.869Z,91
2023-04-07T04:44:00.928Z,91
2023-04-07T04:45:03.534Z,91
2023-04-07T04:46:00.928Z,91
2023-04-07T04:47:00.917Z,92
2023-04-07T04:48:00.973Z,92
2023-04-07T04:49:00.898Z,92
2023-04-07T04:50:03.910Z,92
2023-04-07T04:51:00.921Z,92
2023-04-07T04:52:00.973Z,92
2023-04-07T04:53:00.885Z,92
2023-04-07T04:54:00.956Z,92
2023-04-07T04:55:03.662Z,92
2023-04-07T04:56:00.980Z,92
2023-04-07T04:57:00.939Z,92
2023-04-07T04:58:00.981Z,92
2023-04-07T04:59:00.936Z,92
2023-04-07T05:00:05.856Z,92
2023-04-07T05:01:00.946Z,92
2023-04-07T05:02:01.118Z,92
2023-04-07T05:03:01.246Z,92
2023-04-07T05:04:01.191Z,92
2023-04-07T05:05:03.767Z,92
2023-04-07T05:06:01.037Z,92
2023-04-07T05:07:00.964Z,92
2023-04-07T05:08:01.056Z,92
2023-04-07T05:09:01.024Z,92
2023-04-07T05:10:04.661Z,92
2023-04-07T05:11:00.983Z,92
2023-04-07T05:12:01.056Z,92
2023-04-07T05:13:00.994Z,92
2023-04-07T05:14:01.073Z,92
2023-04-07T05:15:03.673Z,92
2023-04-07T05:16:01.166Z,92
2023-04-07T05:17:01.012Z,92
2023-04-07T05:18:01.185Z,92
2023-04-07T05:19:01.036Z,92
2023-04-07T05:20:06.472Z,92
2023-04-07T05:21:01.048Z,92
2023-04-07T05:22:01.133Z,92
2023-04-07T05:23:01.062Z,92
2023-04-07T05:24:01.153Z,92
2023-04-07T05:25:03.718Z,92
2023-04-07T05:26:01.215Z,92
2023-04-07T05:27:01.087Z,92
2023-04-07T05:28:01.144Z,92
2023-04-07T05:29:01.084Z,92
2023-04-07T05:30:04.844Z,92
2023-04-07T05:31:01.090Z,92
2023-04-07T05:32:01.253Z,92
2023-04-07T05:33:01.164Z,92
2023-04-07T05:34:01.168Z,92
2023-04-07T05:35:04.093Z,92
2023-04-07T05:36:01.263Z,92
2023-04-07T05:37:01.110Z,92
2023-04-07T05:38:01.210Z,92
2023-04-07T05:39:01.131Z,92
2023-04-07T05:40:04.967Z,92
2023-04-07T05:41:01.136Z,92
2023-04-07T05:42:01.210Z,92
2023-04-07T05:43:01.132Z,92
2023-04-07T05:44:01.390Z,92
2023-04-07T05:45:03.915Z,92
2023-04-07T05:46:01.282Z,92
2023-04-07T05:47:01.172Z,92
2023-04-07T05:48:01.278Z,92
2023-04-07T05:49:16.776Z,92
2023-04-07T05:50:05.303Z,92
2023-04-07T05:51:01.176Z,92
2023-04-07T05:52:01.309Z,92
2023-04-07T05:53:00.184Z,92
2023-04-07T05:54:03.408Z,92
2023-04-07T05:55:03.038Z,92
2023-04-07T05:56:00.296Z,92
2023-04-07T05:57:00.221Z,92
2023-04-07T05:58:00.289Z,92
2023-04-07T05:59:00.205Z,92
2023-04-07T06:00:03.380Z,92
2023-04-07T06:01:00.235Z,92
2023-04-07T06:02:00.456Z,92
2023-04-07T06:03:00.440Z,92
2023-04-07T06:04:00.382Z,92
2023-04-07T06:05:03.112Z,92
2023-04-07T06:06:00.359Z,92
2023-04-07T06:07:00.267Z,92
2023-04-07T06:08:00.414Z,92
2023-04-07T06:09:00.303Z,92
2023-04-07T06:10:03.352Z,92
2023-04-07T06:11:00.298Z,92
2023-04-07T06:12:00.384Z,92
2023-04-07T06:13:00.315Z,92
2023-04-07T06:14:00.419Z,92
2023-04-07T06:15:03.798Z,92
2023-04-07T06:16:00.387Z,92
2023-04-07T06:17:00.419Z,92
2023-04-07T06:18:00.464Z,92
2023-04-07T06:19:00.321Z,92
2023-04-07T06:20:03.460Z,92
2023-04-07T06:21:00.349Z,92
2023-04-07T06:22:00.409Z,92
2023-04-07T06:23:00.354Z,92
2023-04-07T06:24:00.447Z,92
2023-04-07T06:25:03.584Z,92
2023-04-07T06:26:00.460Z,92
2023-04-07T06:27:00.374Z,92
2023-04-07T06:28:00.444Z,92
2023-04-07T06:29:00.368Z,92
2023-04-07T06:30:05.146Z,92
2023-04-07T06:31:00.404Z,92
2023-04-07T06:32:00.502Z,92
2023-04-07T06:33:00.431Z,92
2023-04-07T06:34:00.475Z,92
2023-04-07T06:35:03.886Z,92
2023-04-07T06:36:00.499Z,92
2023-04-07T06:37:00.473Z,92
2023-04-07T06:38:00.553Z,92
2023-04-07T06:39:00.422Z,92
2023-04-07T06:40:03.447Z,92
2023-04-07T06:41:00.432Z,92
2023-04-07T06:42:00.529Z,92
2023-04-07T06:43:00.480Z,92
2023-04-07T06:44:00.566Z,92
2023-04-07T06:45:03.097Z,92
2023-04-07T06:46:00.591Z,92
2023-04-07T06:47:00.485Z,92
2023-04-07T06:48:00.697Z,92
2023-04-07T06:49:00.510Z,92
2023-04-07T06:50:03.536Z,92
2023-04-07T06:51:00.536Z,92
2023-04-07T06:52:00.578Z,92
2023-04-07T06:53:00.520Z,92
2023-04-07T06:54:00.634Z,92
2023-04-07T06:55:03.232Z,92
2023-04-07T06:56:00.656Z,92
2023-04-07T06:57:00.560Z,92
2023-04-07T06:58:00.644Z,92
2023-04-07T06:59:00.563Z,92
2023-04-07T07:00:03.659Z,92
2023-04-07T07:01:00.623Z,92
2023-04-07T07:02:00.721Z,92
2023-04-07T07:03:01.127Z,92
2023-04-07T07:04:00.743Z,92
2023-04-07T07:05:03.299Z,92
2023-04-07T07:06:00.677Z,92
2023-04-07T07:07:00.582Z,92
2023-04-07T07:08:00.695Z,92
2023-04-07T07:09:00.621Z,92
2023-04-07T07:10:04.436Z,92
2023-04-07T07:11:00.627Z,92
2023-04-07T07:12:01.927Z,92
2023-04-07T07:13:00.667Z,92
2023-04-07T07:14:00.736Z,92
2023-04-07T07:15:03.191Z,92
2023-04-07T07:16:00.862Z,92
2023-04-07T07:17:00.650Z,92
2023-04-07T07:18:00.825Z,92
2023-04-07T07:19:00.665Z,92
2023-04-07T07:20:03.775Z,92
2023-04-07T07:21:00.702Z,92
2023-04-07T07:22:00.750Z,92
2023-04-07T07:23:00.695Z,92
2023-04-07T07:24:00.756Z,91
2023-04-07T07:25:03.396Z,91
2023-04-07T07:26:00.790Z,91
2023-04-07T07:27:00.707Z,91
2023-04-07T07:36:54.165Z,92
2023-04-07T07:37:00.756Z,92
2023-04-07T07:38:03.956Z,92
2023-04-07T07:39:00.783Z,91
2023-04-07T07:40:04.683Z,91
2023-04-07T07:41:00.773Z,91
2023-04-07T07:42:04.009Z,91
2023-04-07T07:43:00.779Z,91
2023-04-07T07:44:03.973Z,91
2023-04-07T07:45:03.713Z,91
2023-04-07T07:46:04.009Z,91
2023-04-07T07:47:00.793Z,91
2023-04-07T07:48:01.989Z,91
2023-04-07T07:49:00.805Z,91
2023-04-07T07:50:04.238Z,91
2023-04-07T07:51:00.847Z,91
2023-04-07T07:52:00.927Z,91
2023-04-07T07:53:00.838Z,91
2023-04-07T07:54:04.089Z,91
2023-04-07T07:55:03.496Z,91
2023-04-07T07:56:00.913Z,91
2023-04-07T07:57:00.850Z,91
2023-04-07T07:58:04.091Z,91
2023-04-07T07:59:00.877Z,91
2023-04-07T08:00:05.416Z,91
2023-04-07T08:01:00.873Z,91
2023-04-07T08:02:04.095Z,91
2023-04-07T08:03:00.994Z,91
2023-04-07T08:04:04.065Z,91
2023-04-07T08:05:04.302Z,91
2023-04-07T08:06:00.978Z,91
2023-04-07T08:07:00.924Z,91
2023-04-07T08:08:02.077Z,91
2023-04-07T08:09:00.922Z,91
2023-04-07T08:10:19.177Z,91
2023-04-07T08:11:00.930Z,91
2023-04-07T08:12:34.125Z,91
2023-04-07T08:13:00.949Z,91
2023-04-07T08:14:01.093Z,91
2023-04-07T08:15:03.721Z,91
2023-04-07T08:16:01.228Z,91
2023-04-07T08:17:00.959Z,91
2023-04-07T08:18:02.282Z,91
2023-04-07T08:19:00.986Z,91
2023-04-07T08:20:04.285Z,91
2023-04-07T08:21:00.997Z,91
2023-04-07T08:22:01.087Z,91
2023-04-07T08:23:01.001Z,91
2023-04-07T08:24:01.082Z,91
2023-04-07T08:25:03.600Z,91
2023-04-07T08:26:01.061Z,91
2023-04-07T08:27:01.009Z,91
2023-04-07T08:28:01.119Z,91
2023-04-07T08:29:01.005Z,91
2023-04-07T08:30:04.095Z,91
2023-04-07T08:31:01.050Z,91
2023-04-07T08:32:01.104Z,91
2023-04-07T08:33:01.176Z,91
2023-04-07T08:34:01.111Z,91
2023-04-07T08:35:03.641Z,91
2023-04-07T08:36:01.196Z,91
2023-04-07T08:37:01.062Z,91
2023-04-07T08:38:01.123Z,91
2023-04-07T08:39:01.081Z,91
2023-04-07T08:40:04.576Z,91
2023-04-07T08:41:01.062Z,91
2023-04-07T08:42:01.174Z,91
2023-04-07T08:43:01.063Z,91
2023-04-07T08:44:01.132Z,91
2023-04-07T08:45:04.047Z,91
2023-04-07T08:46:01.183Z,91
2023-04-07T08:47:01.132Z,91
2023-04-07T08:48:01.225Z,91
2023-04-07T08:49:01.094Z,91
2023-04-07T08:50:04.587Z,91
2023-04-07T08:51:01.129Z,91
2023-04-07T08:52:01.875Z,91
2023-04-07T08:53:01.119Z,91
2023-04-07T08:54:01.214Z,91
2023-04-07T08:55:03.739Z,91
2023-04-07T08:56:01.247Z,91
2023-04-07T08:57:01.148Z,91
2023-04-07T08:58:02.209Z,91
2023-04-07T08:59:01.150Z,91
2023-04-07T09:00:05.582Z,91
2023-04-07T09:01:00.227Z,91
2023-04-07T09:02:01.764Z,91
2023-04-07T09:03:00.273Z,91
2023-04-07T09:04:00.377Z,91
2023-04-07T09:05:10.541Z,91
2023-04-07T09:06:00.690Z,91
2023-04-07T09:07:00.220Z,91
2023-04-07T09:08:01.254Z,91
2023-04-07T09:09:00.227Z,91
2023-04-07T09:10:04.089Z,91
2023-04-07T09:11:00.221Z,90
2023-04-07T09:12:02.333Z,90
2023-04-07T09:13:00.254Z,90
2023-04-07T09:14:00.616Z,90
2023-04-07T09:15:02.928Z,90
2023-04-07T09:16:01.492Z,90
2023-04-07T09:17:00.336Z,90
2023-04-07T09:18:00.402Z,90
2023-04-07T09:19:00.269Z,90
2023-04-07T09:20:03.944Z,90
2023-04-07T09:21:00.409Z,90
2023-04-07T09:22:00.551Z,90
2023-04-07T09:23:00.290Z,90
2023-04-07T09:24:00.371Z,90
2023-04-07T09:25:03.140Z,90
2023-04-07T09:26:00.373Z,90
2023-04-07T09:27:00.320Z,90
2023-04-07T09:28:00.470Z,90
2023-04-07T09:29:00.338Z,90
2023-04-07T09:30:03.523Z,90
2023-04-07T09:31:00.348Z,90
2023-04-07T09:32:00.451Z,90
2023-04-07T09:33:00.416Z,90
2023-04-07T09:34:00.442Z,90
2023-04-07T09:35:03.084Z,90
2023-04-07T09:36:00.495Z,90
2023-04-07T09:37:00.381Z,90
2023-04-07T09:38:00.440Z,90
2023-04-07T09:39:00.402Z,90
2023-04-07T09:40:03.385Z,90
2023-04-07T09:41:00.420Z,90
2023-04-07T09:42:00.477Z,90
2023-04-07T09:43:00.403Z,90
2023-04-07T09:44:00.642Z,90
2023-04-07T09:45:03.072Z,90
2023-04-07T09:46:00.563Z,90
2023-04-07T09:47:00.428Z,90
2023-04-07T09:48:00.539Z,90
2023-04-07T09:49:00.418Z,90
2023-04-07T09:50:03.711Z,90
2023-04-07T09:51:00.452Z,90
2023-04-07T09:52:00.559Z,90
2023-04-07T09:53:00.469Z,90
2023-04-07T09:54:00.555Z,90
2023-04-07T09:55:03.846Z,90
2023-04-07T09:56:00.574Z,90
2023-04-07T09:57:00.499Z,90
2023-04-07T09:58:00.575Z,90
2023-04-07T09:59:00.489Z,90
2023-04-07T10:00:03.604Z,90
2023-04-07T10:01:00.554Z,90
2023-04-07T10:02:00.887Z,90
2023-04-07T10:03:00.710Z,90
2023-04-07T10:04:00.672Z,90
2023-04-07T10:05:03.301Z,90
2023-04-07T10:06:00.646Z,89
2023-04-07T10:07:00.571Z,89
2023-04-07T10:08:00.636Z,89
2023-04-07T10:09:00.574Z,89
2023-04-07T10:10:03.775Z,89
2023-04-07T10:11:00.576Z,89
2023-04-07T10:12:00.672Z,89
2023-04-07T10:13:00.580Z,89
2023-04-07T10:14:00.688Z,89
2023-04-07T10:15:03.332Z,89
2023-04-07T10:16:00.690Z,89
2023-04-07T10:17:00.636Z,89
2023-04-07T10:18:00.734Z,89
2023-04-07T10:19:00.618Z,89
2023-04-07T10:20:05.135Z,89
2023-04-07T10:21:00.639Z,89
2023-04-07T10:22:00.738Z,89
2023-04-07T10:23:00.637Z,89
2023-04-07T10:24:00.725Z,89
2023-04-07T10:25:04.886Z,89
2023-04-07T10:26:00.736Z,89
2023-04-07T10:27:00.673Z,89
2023-04-07T10:28:00.924Z,89
2023-04-07T10:29:00.659Z,89
2023-04-07T10:30:03.968Z,89
2023-04-07T10:31:00.840Z,89
2023-04-07T10:32:00.898Z,89
2023-04-07T10:33:00.762Z,89
2023-04-07T10:34:00.801Z,89
2023-04-07T10:35:03.249Z,89
2023-04-07T10:36:00.824Z,88
2023-04-07T10:37:00.725Z,88
2023-04-07T10:38:00.824Z,88
2023-04-07T10:39:00.719Z,88
2023-04-07T10:40:03.891Z,88
2023-04-07T10:41:00.737Z,88
2023-04-07T10:42:00.828Z,88
2023-04-07T10:43:00.752Z,88
2023-04-07T10:44:00.837Z,88
2023-04-07T10:45:03.327Z,88
2023-04-07T10:46:00.903Z,88
2023-04-07T10:47:00.833Z,88
2023-04-07T10:48:00.919Z,88
2023-04-07T10:49:00.768Z,88
2023-04-07T10:50:04.808Z,88
2023-04-07T10:51:00.813Z,88
2023-04-07T10:52:00.891Z,88
2023-04-07T10:53:00.798Z,88
2023-04-07T10:54:00.893Z,88
2023-04-07T10:55:03.478Z,88
2023-04-07T10:56:00.909Z,88
2023-04-07T10:57:00.835Z,88
2023-04-07T10:58:00.919Z,88
2023-04-07T10:59:00.818Z,88
2023-04-07T11:00:03.898Z,88
2023-04-07T11:01:00.870Z,88
2023-04-07T11:02:00.982Z,88
2023-04-07T11:03:01.034Z,88
2023-04-07T11:04:01.142Z,88
2023-04-07T11:05:04.008Z,88
2023-04-07T11:06:00.966Z,88
2023-04-07T11:07:00.869Z,88
2023-04-07T11:08:00.952Z,88
2023-04-07T11:09:00.900Z,88
2023-04-07T11:10:04.524Z,88
2023-04-07T11:11:00.891Z,88
2023-04-07T11:12:00.979Z,88
2023-04-07T11:13:00.904Z,88
2023-04-07T11:14:00.970Z,88
2023-04-07T11:15:03.566Z,88
2023-04-07T11:16:01.033Z,88
2023-04-07T11:17:00.908Z,88
2023-04-07T11:18:01.013Z,88
2023-04-07T11:19:00.955Z,88
2023-04-07T11:20:05.367Z,88
2023-04-07T11:21:00.943Z,88
2023-04-07T11:22:01.060Z,88
2023-04-07T11:23:00.953Z,88
2023-04-07T11:24:01.028Z,88
2023-04-07T11:25:03.613Z,88
2023-04-07T11:26:01.037Z,88
2023-04-07T11:27:00.975Z,88
2023-04-07T11:28:01.086Z,88
2023-04-07T11:29:00.976Z,88
2023-04-07T11:30:04.532Z,88
2023-04-07T11:31:01.117Z,88
2023-04-07T11:32:01.068Z,88
2023-04-07T11:33:01.043Z,88
2023-04-07T11:34:01.121Z,88
2023-04-07T11:35:03.763Z,88
2023-04-07T11:36:01.155Z,88
2023-04-07T11:37:01.013Z,88
2023-04-07T11:38:01.147Z,88
2023-04-07T11:39:01.036Z,88
2023-04-07T11:42:17.143Z,88
2023-04-07T11:43:01.040Z,88
2023-04-07T11:44:33.577Z,88
2023-04-07T11:45:05.988Z,88
2023-04-07T11:46:01.124Z,88
2023-04-07T11:47:01.148Z,88
2023-04-07T11:48:16.981Z,88
2023-04-07T11:49:01.077Z,88
2023-04-07T11:50:04.013Z,88
2023-04-07T11:51:01.155Z,88
2023-04-07T11:52:02.219Z,88
2023-04-07T11:53:01.123Z,88
2023-04-07T11:54:01.239Z,88
2023-04-07T11:55:03.887Z,88
2023-04-07T11:56:02.222Z,88
2023-04-07T11:57:01.243Z,88
2023-04-07T11:58:02.235Z,88
2023-04-07T11:59:01.164Z,88
2023-04-07T12:00:05.115Z,88
2023-04-07T12:01:01.170Z,88
2023-04-07T12:02:16.722Z,88
2023-04-07T12:03:01.328Z,88
2023-04-07T12:04:33.666Z,88
2023-04-07T12:05:03.953Z,88
2023-04-07T12:06:00.262Z,88
2023-04-07T12:07:00.224Z,88
2023-04-07T12:08:07.491Z,88
2023-04-07T12:09:00.294Z,88
2023-04-07T12:10:04.560Z,88
2023-04-07T12:11:00.218Z,88
2023-04-07T12:12:00.325Z,88
2023-04-07T12:13:00.244Z,88
2023-04-07T12:14:01.348Z,88
2023-04-07T12:15:02.846Z,88
2023-04-07T12:16:00.361Z,88
2023-04-07T12:17:00.230Z,88
2023-04-07T12:18:00.415Z,88
2023-04-07T12:19:00.270Z,88
2023-04-07T12:20:03.250Z,88
2023-04-07T12:21:00.281Z,88
2023-04-07T12:22:16.233Z,88
2023-04-07T12:23:00.276Z,88
2023-04-07T12:24:01.417Z,88
2023-04-07T12:25:02.876Z,88
2023-04-07T12:26:32.637Z,88
2023-04-07T12:27:00.317Z,88
2023-04-07T12:35:15.363Z,88
2023-04-07T12:36:00.450Z,88
2023-04-07T12:37:00.348Z,88
2023-04-07T12:38:00.459Z,88
2023-04-07T12:39:00.366Z,88
2023-04-07T12:40:04.511Z,88
2023-04-07T12:41:00.405Z,88
2023-04-07T12:42:00.471Z,88
2023-04-07T12:43:00.371Z,88
2023-04-07T12:44:00.449Z,88
2023-04-07T12:45:03.087Z,88
2023-04-07T12:46:00.498Z,88
2023-04-07T12:47:00.460Z,88
2023-04-07T12:48:00.560Z,87
2023-04-07T12:49:00.485Z,87
2023-04-07T12:50:03.541Z,87
2023-04-07T12:51:00.421Z,87
2023-04-07T12:52:00.504Z,87
2023-04-07T12:53:00.446Z,87
2023-04-07T12:54:00.560Z,87
2023-04-07T12:55:03.266Z,87
2023-04-07T12:56:00.497Z,87
2023-04-07T12:57:00.444Z,87
2023-04-07T12:58:00.519Z,87
2023-04-07T12:59:00.474Z,87
2023-04-07T13:00:04.916Z,87
2023-04-07T13:01:00.524Z,87
2023-04-07T13:02:00.627Z,87
2023-04-07T13:03:00.751Z,87
2023-04-07T13:04:00.812Z,87
2023-04-07T13:05:03.334Z,87
2023-04-07T13:06:00.585Z,87
2023-04-07T13:07:00.501Z,87
2023-04-07T13:08:00.577Z,87
2023-04-07T13:09:00.542Z,87
2023-04-07T13:10:03.665Z,87
2023-04-07T13:11:00.629Z,87
2023-04-07T13:12:00.607Z,87
2023-04-07T13:13:00.521Z,87
2023-04-07T13:14:01.398Z,87
2023-04-07T13:15:03.199Z,87
2023-04-07T13:16:00.628Z,87
2023-04-07T13:17:00.657Z,87
2023-04-07T13:18:00.633Z,87
2023-04-07T13:19:00.546Z,87
2023-04-07T13:20:03.818Z,87
2023-04-07T13:22:00.827Z,87
2023-04-07T13:23:07.111Z,87
2023-04-07T13:24:00.672Z,88
2023-04-07T13:25:03.222Z,88
2023-04-07T13:26:00.685Z,88
2023-04-07T13:27:00.620Z,88
2023-04-07T13:28:00.680Z,88
2023-04-07T13:29:00.776Z,88
2023-04-07T13:30:03.612Z,88
2023-04-07T13:31:00.634Z,88
2023-04-07T13:32:02.265Z,88
2023-04-07T13:33:00.693Z,87
2023-04-07T13:34:00.717Z,87
2023-04-07T13:35:04.245Z,87
2023-04-07T13:36:00.798Z,87
2023-04-07T13:37:00.662Z,87
2023-04-07T13:38:00.750Z,87
2023-04-07T13:39:00.689Z,87
2023-04-07T13:40:03.652Z,87
2023-04-07T13:41:00.741Z,87
2023-04-07T13:42:00.813Z,87
2023-04-07T13:43:00.749Z,87
2023-04-07T13:44:00.787Z,87
2023-04-07T13:45:03.743Z,87
2023-04-07T13:46:00.900Z,87
2023-04-07T13:47:00.908Z,87
2023-04-07T13:48:00.881Z,87
2023-04-07T13:49:00.875Z,87
2023-04-07T13:50:03.915Z,87
2023-04-07T13:51:00.840Z,87
2023-04-07T13:59:00.964Z,86
2023-04-07T14:00:03.798Z,86
2023-04-07T14:01:00.991Z,86
2023-04-07T14:02:01.120Z,86
2023-04-07T14:03:01.158Z,86
2023-04-07T14:04:02.433Z,86
2023-04-07T14:05:03.596Z,86
2023-04-07T14:06:01.110Z,86
2023-04-07T14:07:00.999Z,86
2023-04-07T14:08:01.083Z,86
2023-04-07T14:09:01.007Z,86
2023-04-07T14:10:04.036Z,86
2023-04-07T14:11:01.003Z,86
2023-04-07T14:12:01.140Z,86
2023-04-07T14:13:01.019Z,86
2023-04-07T14:14:01.112Z,86
2023-04-07T14:15:05.016Z,86
2023-04-07T14:16:04.267Z,86
2023-04-07T14:17:01.115Z,86
2023-04-07T14:18:01.195Z,86
2023-04-07T14:19:01.062Z,86
2023-04-07T14:20:03.913Z,86
2023-04-07T14:21:01.061Z,86
2023-04-07T14:22:02.265Z,86
2023-04-07T14:23:01.052Z,86
2023-04-07T14:24:01.226Z,86
2023-04-07T14:25:03.677Z,86
2023-04-07T14:26:01.260Z,86
2023-04-07T14:27:01.179Z,85
2023-04-07T14:28:01.142Z,85
2023-04-07T14:29:01.061Z,85
2023-04-07T14:30:04.978Z,85
2023-04-07T14:31:01.151Z,85
2023-04-07T14:32:02.269Z,85
2023-04-07T14:33:02.529Z,85
2023-04-07T14:34:01.193Z,85
2023-04-07T14:35:03.647Z,85
2023-04-07T14:36:01.235Z,85
2023-04-07T14:37:01.106Z,85
2023-04-07T14:38:01.230Z,85
2023-04-07T14:39:01.120Z,85
2023-04-07T14:40:11.681Z,85
2023-04-07T14:41:09.589Z,85
2023-04-07T14:42:02.264Z,85
2023-04-07T14:44:00.388Z,85
2023-04-07T14:45:02.746Z,85
2023-04-07T14:46:00.373Z,85